createdAt,value
2019-02-03T00:00:33.927Z,6.20
2019-02-03T00:03:05.746Z,6.10
2019-02-03T00:05:37.810Z,6.10
2019-02-03T00:08:09.622Z,6.10
2019-02-03T00:10:41.154Z,6.00
2019-02-03T00:13:12.722Z,6.00
2019-02-03T00:15:47.404Z,5.90
2019-02-03T00:18:18.798Z,5.90
2019-02-03T00:20:50.441Z,5.90
2019-02-03T00:23:21.860Z,5.90
2019-02-03T00:25:53.369Z,5.80
2019-02-03T00:28:28.797Z,5.80
2019-02-03T00:31:00.445Z,5.80
2019-02-03T00:33:32.195Z,5.80
2019-02-03T00:36:07.055Z,5.70
2019-02-03T00:38:39.124Z,5.60
2019-02-03T00:41:10.843Z,5.60
2019-02-03T00:43:45.603Z,5.60
2019-02-03T00:46:17.253Z,5.50
2019-02-03T00:48:50.545Z,5.60
2019-02-03T00:51:22.131Z,5.60
2019-02-03T00:53:53.814Z,5.50
2019-02-03T00:56:28.217Z,5.40
2019-02-03T00:58:59.851Z,5.40
2019-02-03T01:01:34.596Z,5.50
2019-02-03T01:04:04.796Z,5.50
2019-02-03T01:06:36.631Z,5.50
2019-02-03T01:09:12.183Z,5.50
2019-02-03T01:11:49.826Z,5.60
2019-02-03T01:14:21.751Z,5.50
2019-02-03T01:16:53.367Z,5.60
2019-02-03T01:19:30.334Z,5.50
2019-02-03T01:22:02.088Z,5.60
2019-02-03T01:24:33.697Z,5.60
2019-02-03T01:27:05.440Z,5.60
2019-02-03T01:29:39.695Z,5.60
2019-02-03T01:32:11.604Z,5.60
2019-02-03T01:34:43.506Z,5.60
2019-02-03T01:37:15.141Z,5.60
2019-02-03T01:39:48.387Z,5.60
2019-02-03T01:42:20.057Z,5.50
2019-02-03T01:44:54.740Z,5.40
2019-02-03T01:47:26.653Z,5.30
2019-02-03T01:49:58.284Z,5.30
2019-02-03T01:52:29.845Z,5.20
2019-02-03T01:55:01.643Z,5.20
2019-02-03T01:57:33.215Z,5.10
2019-02-03T02:00:06.942Z,5.20
2019-02-03T02:02:38.556Z,5.10
2019-02-03T02:05:10.376Z,5.10
2019-02-03T02:07:51.192Z,5.00
2019-02-03T02:10:21.199Z,5.10
2019-02-03T02:12:52.718Z,5.00
2019-02-03T02:15:24.465Z,5.00
2019-02-03T02:17:55.989Z,5.10
2019-02-03T02:20:28.595Z,5.10
2019-02-03T02:23:02.607Z,5.00
2019-02-03T02:25:34.388Z,5.00
2019-02-03T02:28:06.288Z,5.00
2019-02-03T02:30:39.890Z,5.10
2019-02-03T02:33:11.404Z,5.10
2019-02-03T02:35:43.264Z,5.10
2019-02-03T02:38:14.999Z,5.20
2019-02-03T02:40:46.730Z,5.20
2019-02-03T02:43:18.210Z,5.20
2019-02-03T02:45:49.951Z,5.20
2019-02-03T02:48:21.573Z,5.10
2019-02-03T02:50:53.045Z,5.00
2019-02-03T02:53:27.115Z,5.10
2019-02-03T02:56:01.572Z,4.90
2019-02-03T02:58:37.589Z,5.00
2019-02-03T03:01:09.084Z,4.90
2019-02-03T03:03:40.854Z,5.00
2019-02-03T03:06:14.152Z,5.00
2019-02-03T03:08:46.718Z,5.00
2019-02-03T03:11:19.698Z,5.00
2019-02-03T03:13:54.058Z,5.00
2019-02-03T03:16:25.585Z,5.00
2019-02-03T03:18:56.935Z,4.90
2019-02-03T03:21:28.505Z,4.90
2019-02-03T03:24:00.104Z,4.80
2019-02-03T03:26:31.792Z,4.80
2019-02-03T03:29:03.460Z,4.80
2019-02-03T03:31:35.004Z,4.80
2019-02-03T03:34:08.534Z,4.70
2019-02-03T03:36:43.813Z,4.70
2019-02-03T03:39:18.245Z,4.60
2019-02-03T03:41:56.353Z,4.50
2019-02-03T03:44:31.069Z,4.50
2019-02-03T03:47:06.675Z,4.60
2019-02-03T03:49:41.071Z,4.50
2019-02-03T03:52:15.768Z,4.50
2019-02-03T03:54:57.295Z,4.50
2019-02-03T03:57:41.871Z,4.50
2019-02-03T04:00:23.314Z,4.60
2019-02-03T04:02:55.710Z,4.60
2019-02-03T04:05:37.321Z,4.50
2019-02-03T04:08:14.541Z,4.50
2019-02-03T04:11:01.304Z,4.50
2019-02-03T04:13:33.892Z,4.50
2019-02-03T04:16:05.627Z,4.50
2019-02-03T04:18:44.602Z,4.50
2019-02-03T04:21:23.450Z,4.40
2019-02-03T04:24:00.072Z,4.50
2019-02-03T04:26:31.940Z,4.40
2019-02-03T04:29:13.571Z,4.40
2019-02-03T04:31:56.087Z,4.40
2019-02-03T04:34:32.991Z,4.40
2019-02-03T04:37:17.788Z,4.40
2019-02-03T04:39:55.285Z,4.30
2019-02-03T04:42:27.422Z,4.40
2019-02-03T04:45:08.806Z,4.30
2019-02-03T04:48:03.049Z,4.40
2019-02-03T04:50:34.902Z,4.40
2019-02-03T04:53:08.682Z,4.30
2019-02-03T04:55:55.094Z,4.30
2019-02-03T04:58:39.866Z,4.30
2019-02-03T05:01:27.439Z,4.30
2019-02-03T05:04:07.326Z,4.20
2019-02-03T05:06:52.482Z,4.20
2019-02-03T05:09:26.007Z,4.30
2019-02-03T05:12:01.175Z,4.20
2019-02-03T05:14:35.798Z,4.20
2019-02-03T05:17:12.395Z,4.20
2019-02-03T05:19:46.665Z,4.20
2019-02-03T05:22:33.477Z,4.10
2019-02-03T05:25:09.093Z,4.00
2019-02-03T05:27:48.339Z,4.00
2019-02-03T05:30:26.298Z,4.00
2019-02-03T05:32:58.869Z,3.80
2019-02-03T05:35:31.435Z,3.80
2019-02-03T05:38:16.755Z,3.70
2019-02-03T05:40:49.375Z,3.70
2019-02-03T05:43:25.813Z,3.70
2019-02-03T05:46:02.512Z,3.60
2019-02-03T05:48:36.945Z,3.60
2019-02-03T05:51:20.302Z,3.60
2019-02-03T05:53:56.162Z,3.60
2019-02-03T05:56:31.876Z,3.50
2019-02-03T05:59:09.190Z,3.50
2019-02-03T06:01:45.740Z,3.50
2019-02-03T06:04:27.046Z,3.50
2019-02-03T06:06:59.289Z,3.50
2019-02-03T06:09:36.760Z,3.50
2019-02-03T06:12:07.195Z,3.40
2019-02-03T06:15:03.970Z,3.50
2019-02-03T06:17:45.646Z,3.40
2019-02-03T06:20:44.394Z,3.50
2019-02-03T06:23:25.145Z,3.50
2019-02-03T06:26:28.006Z,3.50
2019-02-03T06:29:02.419Z,3.50
2019-02-03T06:31:38.095Z,3.50
2019-02-03T06:34:29.571Z,3.50
2019-02-03T06:37:03.997Z,3.50
2019-02-03T06:39:48.085Z,3.50
2019-02-03T06:42:20.375Z,3.40
2019-02-03T06:45:42.942Z,3.40
2019-02-03T06:48:50.543Z,3.40
2019-02-03T06:51:23.659Z,3.30
2019-02-03T06:54:23.122Z,3.20
2019-02-03T06:57:12.192Z,3.20
2019-02-03T06:59:50.901Z,3.20
2019-02-03T07:02:23.397Z,3.20
2019-02-03T07:05:04.772Z,3.10
2019-02-03T07:08:07.485Z,3.00
2019-02-03T07:11:02.691Z,3.10
2019-02-03T07:13:34.381Z,3.00
2019-02-03T07:16:06.020Z,3.00
2019-02-03T07:18:37.545Z,3.00
2019-02-03T07:21:09.042Z,3.00
2019-02-03T07:23:40.510Z,3.00
2019-02-03T07:26:12.009Z,2.90
2019-02-03T07:28:43.610Z,3.00
2019-02-03T07:31:15.256Z,2.90
2019-02-03T07:33:47.951Z,2.90
2019-02-03T07:36:20.569Z,2.80
2019-02-03T07:38:52.094Z,2.90
2019-02-03T07:41:23.513Z,2.90
2019-02-03T07:43:55.064Z,3.00
2019-02-03T07:46:26.523Z,2.90
2019-02-03T07:48:58.138Z,2.90
2019-02-03T07:51:29.659Z,2.90
2019-02-03T07:54:08.410Z,2.90
2019-02-03T07:56:34.299Z,2.90
2019-02-03T07:59:06.474Z,2.90
2019-02-03T08:01:37.896Z,2.90
2019-02-03T08:04:09.403Z,2.90
2019-02-03T08:06:40.921Z,3.00
2019-02-03T08:09:12.819Z,2.90
2019-02-03T08:11:44.267Z,2.90
2019-02-03T08:14:15.771Z,2.90
2019-02-03T08:16:47.184Z,2.90
2019-02-03T08:19:18.657Z,2.80
2019-02-03T08:21:50.075Z,2.80
2019-02-03T08:24:22.793Z,2.80
2019-02-03T08:26:54.178Z,2.70
2019-02-03T08:29:25.558Z,2.70
2019-02-03T08:31:57.009Z,2.70
2019-02-03T08:34:28.405Z,2.70
2019-02-03T08:37:00.119Z,2.80
2019-02-03T08:39:31.561Z,2.80
2019-02-03T08:42:03.153Z,2.80
2019-02-03T08:44:34.565Z,2.70
2019-02-03T08:47:07.178Z,2.80
2019-02-03T08:49:38.657Z,2.80
2019-02-03T08:52:10.155Z,2.80
2019-02-03T08:54:50.859Z,2.70
2019-02-03T08:57:14.791Z,2.70
2019-02-03T08:59:46.141Z,2.80
2019-02-03T09:02:17.541Z,3.00
2019-02-03T09:04:48.916Z,3.10
2019-02-03T09:07:20.283Z,3.20
2019-02-03T09:09:51.761Z,3.20
2019-02-03T09:12:23.594Z,3.20
2019-02-03T09:14:55.028Z,3.10
2019-02-03T09:17:26.615Z,3.20
2019-02-03T09:19:58.255Z,3.10
2019-02-03T09:22:29.950Z,3.00
2019-02-03T09:25:01.677Z,3.00
2019-02-03T09:27:33.165Z,3.00
2019-02-03T09:30:07.041Z,3.00
2019-02-03T09:32:38.737Z,3.00
2019-02-03T09:35:11.739Z,3.10
2019-02-03T09:37:43.257Z,3.10
2019-02-03T09:40:18.998Z,3.10
2019-02-03T09:42:50.352Z,3.10
2019-02-03T09:45:22.712Z,3.10
2019-02-03T09:47:54.191Z,3.10
2019-02-03T09:50:30.934Z,3.20
2019-02-03T09:53:03.200Z,3.10
2019-02-03T09:55:34.836Z,3.10
2019-02-03T09:58:07.122Z,3.10
2019-02-03T10:00:39.480Z,3.20
2019-02-03T10:03:11.803Z,3.20
2019-02-03T10:05:43.184Z,3.20
2019-02-03T10:08:16.009Z,3.30
2019-02-03T10:10:48.517Z,3.30
2019-02-03T10:13:19.927Z,3.30
2019-02-03T10:15:52.365Z,3.20
2019-02-03T10:18:23.950Z,3.20
2019-02-03T10:20:55.418Z,3.20
2019-02-03T10:23:27.107Z,3.10
2019-02-03T10:25:58.885Z,3.20
2019-02-03T10:28:30.275Z,3.20
2019-02-03T10:31:01.835Z,3.20
2019-02-03T10:33:33.741Z,3.20
2019-02-03T10:36:05.453Z,3.20
2019-02-03T10:38:37.138Z,3.20
2019-02-03T10:41:08.659Z,3.20
2019-02-03T10:43:42.463Z,3.30
2019-02-03T10:46:13.916Z,3.20
2019-02-03T10:48:45.316Z,3.20
2019-02-03T10:51:16.751Z,3.20
2019-02-03T10:53:48.346Z,3.20
2019-02-03T10:56:19.838Z,3.20
2019-02-03T10:58:52.141Z,3.20
2019-02-03T11:01:23.645Z,3.20
2019-02-03T11:03:56.688Z,3.10
2019-02-03T11:06:28.275Z,3.10
2019-02-03T11:08:59.757Z,3.20
2019-02-03T11:11:36.598Z,3.30
2019-02-03T11:14:04.835Z,3.30
2019-02-03T11:16:36.418Z,3.30
2019-02-03T11:19:07.949Z,3.10
2019-02-03T11:21:39.692Z,3.20
2019-02-03T11:24:11.237Z,3.30
2019-02-03T11:26:42.718Z,3.20
2019-02-03T11:29:14.265Z,3.20
2019-02-03T11:31:45.787Z,3.20
2019-02-03T11:34:17.158Z,3.30
2019-02-03T11:36:48.757Z,3.30
2019-02-03T11:39:20.251Z,3.30
2019-02-03T11:41:51.723Z,3.30
2019-02-03T11:44:23.121Z,3.30
2019-02-03T11:46:54.455Z,3.30
2019-02-03T11:49:26.150Z,3.30
2019-02-03T11:51:57.710Z,3.20
2019-02-03T11:54:29.162Z,3.20
2019-02-03T11:57:00.640Z,3.20
2019-02-03T11:59:32.190Z,3.30
2019-02-03T12:02:03.620Z,3.30
2019-02-03T12:04:35.532Z,3.30
2019-02-03T12:07:06.956Z,3.20
2019-02-03T12:09:38.475Z,3.20
2019-02-03T12:12:09.878Z,3.30
2019-02-03T12:14:43.358Z,3.30
2019-02-03T12:17:14.765Z,3.30
2019-02-03T12:19:46.274Z,3.40
2019-02-03T12:22:17.745Z,3.40
2019-02-03T12:24:49.127Z,3.40
2019-02-03T12:27:20.633Z,3.50
2019-02-03T12:29:52.108Z,3.40
2019-02-03T12:32:23.418Z,3.50
2019-02-03T12:34:54.844Z,3.40
2019-02-03T12:37:26.343Z,3.40
2019-02-03T12:39:57.806Z,3.40
2019-02-03T12:42:29.242Z,3.50
2019-02-03T12:45:00.698Z,3.40
2019-02-03T12:47:32.532Z,3.40
2019-02-03T12:50:04.032Z,3.50
2019-02-03T12:52:35.510Z,3.50
2019-02-03T12:55:09.081Z,3.40
2019-02-03T12:57:42.687Z,3.50
2019-02-03T13:00:20.945Z,3.50
2019-02-03T13:02:52.558Z,3.50
2019-02-03T13:05:25.268Z,3.50
2019-02-03T13:07:57.953Z,3.50
2019-02-03T13:10:34.711Z,3.60
2019-02-03T13:13:07.454Z,3.60
2019-02-03T13:15:45.367Z,3.60
2019-02-03T13:18:16.846Z,3.60
2019-02-03T13:20:48.333Z,3.60
2019-02-03T13:23:20.766Z,3.60
2019-02-03T13:25:54.796Z,3.60
2019-02-03T13:28:26.520Z,3.60
2019-02-03T13:30:57.975Z,3.60
2019-02-03T13:33:29.509Z,3.60
2019-02-03T13:36:01.020Z,3.60
2019-02-03T13:38:37.067Z,3.70
2019-02-03T13:41:08.782Z,3.60
2019-02-03T13:43:40.222Z,3.50
2019-02-03T13:46:11.626Z,3.50
2019-02-03T13:48:43.033Z,3.50
2019-02-03T13:51:14.433Z,3.50
2019-02-03T13:53:45.881Z,3.50
2019-02-03T13:56:17.401Z,3.60
2019-02-03T13:58:48.791Z,3.60
2019-02-03T14:01:20.121Z,3.60
2019-02-03T14:03:51.832Z,3.70
2019-02-03T14:06:23.344Z,3.90
2019-02-03T14:08:54.751Z,4.00
2019-02-03T14:11:26.168Z,3.90
2019-02-03T14:13:57.629Z,3.80
2019-02-03T14:16:29.312Z,3.80
2019-02-03T14:19:01.016Z,3.80
2019-02-03T14:21:32.508Z,3.80
2019-02-03T14:24:03.918Z,3.70
2019-02-03T14:26:35.533Z,3.70
2019-02-03T14:29:06.895Z,3.80
2019-02-03T14:31:38.338Z,3.80
2019-02-03T14:34:10.121Z,3.80
2019-02-03T14:36:41.621Z,3.90
2019-02-03T14:39:13.354Z,3.90
2019-02-03T14:41:44.818Z,3.90
2019-02-03T14:44:16.298Z,3.90
2019-02-03T14:46:48.015Z,3.90
2019-02-03T14:49:19.465Z,3.90
2019-02-03T14:51:50.995Z,3.80
2019-02-03T14:54:22.440Z,3.80
2019-02-03T14:56:53.940Z,3.80
2019-02-03T14:59:25.411Z,3.70
2019-02-03T15:01:57.096Z,3.80
2019-02-03T15:04:28.563Z,3.70
2019-02-03T15:07:00.013Z,3.70
2019-02-03T15:09:31.511Z,3.70
2019-02-03T15:12:02.979Z,3.70
2019-02-03T15:14:37.622Z,3.50
2019-02-03T15:17:09.071Z,3.60
2019-02-03T15:19:40.564Z,3.50
2019-02-03T15:22:11.999Z,3.60
2019-02-03T15:24:43.429Z,3.60
2019-02-03T15:27:14.838Z,3.60
2019-02-03T15:29:46.300Z,3.60
2019-02-03T15:32:17.717Z,3.70
2019-02-03T15:34:49.238Z,3.70
2019-02-03T15:37:20.941Z,3.70
2019-02-03T15:39:55.007Z,3.60
2019-02-03T15:42:27.664Z,3.60
2019-02-03T15:45:00.971Z,3.60
2019-02-03T15:47:32.909Z,3.60
2019-02-03T15:50:05.348Z,3.70
2019-02-03T15:52:36.849Z,3.70
2019-02-03T15:55:10.248Z,3.60
2019-02-03T15:57:41.806Z,3.60
2019-02-03T16:00:20.443Z,3.70
2019-02-03T16:02:52.104Z,3.80
2019-02-03T16:05:24.112Z,3.70
2019-02-03T16:07:55.560Z,3.80
2019-02-03T16:10:27.672Z,3.80
2019-02-03T16:12:59.145Z,3.80
2019-02-03T16:15:30.587Z,3.90
2019-02-03T16:18:02.099Z,3.90
2019-02-03T16:20:33.524Z,4.00
2019-02-03T16:23:05.213Z,4.00
2019-02-03T16:25:36.885Z,4.00
2019-02-03T16:28:08.794Z,4.10
2019-02-03T16:30:40.644Z,4.30
2019-02-03T16:33:12.616Z,4.30
2019-02-03T16:35:44.031Z,4.50
2019-02-03T16:38:23.030Z,4.80
2019-02-03T16:40:48.951Z,5.00
2019-02-03T16:43:20.559Z,5.20
2019-02-03T16:45:52.006Z,5.20
2019-02-03T16:48:23.550Z,5.20
2019-02-03T16:50:55.091Z,5.20
2019-02-03T16:53:26.566Z,5.20
2019-02-03T16:55:57.963Z,5.10
2019-02-03T16:58:29.655Z,5.10
2019-02-03T17:01:01.104Z,5.00
2019-02-03T17:03:32.782Z,5.00
2019-02-03T17:06:04.213Z,5.10
2019-02-03T17:08:35.688Z,5.10
2019-02-03T17:11:07.586Z,5.10
2019-02-03T17:13:39.015Z,5.00
2019-02-03T17:16:10.881Z,5.00
2019-02-03T17:18:42.319Z,5.00
2019-02-03T17:21:14.126Z,5.20
2019-02-03T17:23:45.457Z,5.20
2019-02-03T17:26:16.893Z,5.10
2019-02-03T17:28:48.335Z,5.10
2019-02-03T17:31:19.898Z,5.00
2019-02-03T17:33:51.338Z,4.90
2019-02-03T17:36:22.759Z,4.70
2019-02-03T17:38:54.133Z,4.70
2019-02-03T17:41:25.713Z,4.70
2019-02-03T17:43:57.288Z,4.80
2019-02-03T17:46:28.718Z,4.90
2019-02-03T17:49:00.207Z,4.80
2019-02-03T17:51:31.645Z,4.90
2019-02-03T17:54:03.133Z,5.00
2019-02-03T17:56:34.517Z,5.10
2019-02-03T17:59:07.981Z,5.20
2019-02-03T18:01:42.795Z,5.40
2019-02-03T18:04:15.349Z,5.50
2019-02-03T18:06:55.898Z,5.60
2019-02-03T18:09:48.409Z,5.90
2019-02-03T18:12:20.234Z,5.90
2019-02-03T18:15:07.010Z,5.70
2019-02-03T18:17:42.911Z,5.60
2019-02-03T18:20:28.023Z,5.50
2019-02-03T18:23:04.372Z,5.60
2019-02-03T18:26:29.653Z,5.70
2019-02-03T18:29:19.745Z,5.70
2019-02-03T18:32:16.270Z,5.60
2019-02-03T18:35:00.561Z,5.50
2019-02-03T18:37:58.107Z,5.40
2019-02-03T18:40:35.931Z,5.10
2019-02-03T18:43:35.189Z,5.00
2019-02-03T18:46:07.427Z,4.80
2019-02-03T18:48:40.749Z,4.70
2019-02-03T18:51:14.468Z,4.70
2019-02-03T18:53:49.334Z,4.70
2019-02-03T18:56:21.145Z,4.50
2019-02-03T18:58:54.943Z,4.50
2019-02-03T19:01:26.372Z,4.50
2019-02-03T19:03:58.027Z,4.50
2019-02-03T19:06:29.514Z,4.40
2019-02-03T19:09:01.949Z,4.30
2019-02-03T19:11:35.032Z,4.20
2019-02-03T19:14:07.234Z,4.20
2019-02-03T19:16:39.767Z,4.20
2019-02-03T19:19:11.532Z,4.20
2019-02-03T19:21:43.256Z,4.20
2019-02-03T19:24:14.782Z,4.20
2019-02-03T19:26:46.272Z,4.10
2019-02-03T19:29:17.751Z,4.10
2019-02-03T19:31:49.182Z,4.20
2019-02-03T19:34:20.670Z,4.20
2019-02-03T19:36:52.098Z,4.20
2019-02-03T19:39:23.561Z,4.20
2019-02-03T19:41:54.927Z,4.10
2019-02-03T19:44:26.641Z,4.20
2019-02-03T19:46:58.145Z,4.10
2019-02-03T19:49:29.623Z,4.10
2019-02-03T19:52:01.108Z,4.10
2019-02-03T19:54:32.552Z,4.10
2019-02-03T19:57:03.980Z,4.00
2019-02-03T19:59:46.305Z,4.00
2019-02-03T20:02:09.051Z,3.90
2019-02-03T20:04:40.689Z,3.90
2019-02-03T20:07:12.568Z,3.90
2019-02-03T20:09:44.086Z,3.90
2019-02-03T20:12:15.730Z,4.00
2019-02-03T20:14:47.165Z,3.90
2019-02-03T20:17:18.713Z,4.00
2019-02-03T20:19:52.854Z,4.00
2019-02-03T20:22:24.613Z,4.00
2019-02-03T20:24:56.156Z,4.00
2019-02-03T20:27:27.919Z,4.00
2019-02-03T20:29:59.478Z,4.00
2019-02-03T20:32:31.055Z,4.00
2019-02-03T20:35:02.694Z,4.00
2019-02-03T20:37:34.263Z,4.10
2019-02-03T20:40:06.472Z,4.10
2019-02-03T20:42:39.587Z,4.00
2019-02-03T20:45:20.997Z,4.10
2019-02-03T20:47:45.369Z,4.00
2019-02-03T20:50:21.353Z,3.90
2019-02-03T20:52:53.088Z,3.90
2019-02-03T20:55:24.647Z,4.00
2019-02-03T20:57:57.220Z,3.90
2019-02-03T21:00:31.486Z,3.90
2019-02-03T21:03:03.347Z,3.90
2019-02-03T21:05:35.193Z,3.90
2019-02-03T21:08:06.952Z,3.90
2019-02-03T21:10:38.530Z,4.00
2019-02-03T21:13:11.579Z,4.00
2019-02-03T21:15:43.627Z,3.90
2019-02-03T21:18:15.095Z,3.80
2019-02-03T21:20:46.738Z,3.90
2019-02-03T21:23:19.922Z,3.90
2019-02-03T21:25:51.489Z,3.90
2019-02-03T21:28:23.028Z,3.90
2019-02-03T21:30:54.476Z,3.90
2019-02-03T21:33:25.860Z,3.90
2019-02-03T21:35:57.307Z,3.90
2019-02-03T21:38:28.806Z,3.90
2019-02-03T21:41:00.275Z,3.90
2019-02-03T21:43:31.876Z,3.90
2019-02-03T21:46:03.326Z,3.90
2019-02-03T21:48:34.775Z,4.00
2019-02-03T21:51:06.214Z,4.00
2019-02-03T21:53:38.209Z,4.00
2019-02-03T21:56:09.707Z,4.00
2019-02-03T21:58:41.164Z,3.90
2019-02-03T22:01:12.569Z,4.00
2019-02-03T22:03:43.961Z,4.00
2019-02-03T22:06:15.509Z,4.00
2019-02-03T22:08:47.019Z,3.90
2019-02-03T22:11:18.406Z,3.80
2019-02-03T22:13:50.001Z,3.80
2019-02-03T22:16:23.219Z,3.80
2019-02-03T22:18:54.561Z,3.80
2019-02-03T22:21:26.072Z,3.80
2019-02-03T22:23:58.773Z,3.80
2019-02-03T22:26:30.424Z,3.80
2019-02-03T22:29:02.208Z,3.90
2019-02-03T22:31:33.756Z,3.90
2019-02-03T22:34:05.778Z,3.90
2019-02-03T22:36:37.376Z,4.00
2019-02-03T22:39:10.301Z,4.00
2019-02-03T22:41:42.816Z,4.00
2019-02-03T22:44:14.272Z,4.10
2019-02-03T22:46:45.717Z,4.10
2019-02-03T22:49:17.056Z,4.10
2019-02-03T22:51:48.751Z,4.10
2019-02-03T22:54:20.528Z,4.10
2019-02-03T22:56:52.202Z,4.10
2019-02-03T22:59:23.617Z,4.10
2019-02-03T23:01:55.204Z,4.10
2019-02-03T23:04:30.908Z,4.10
2019-02-03T23:07:02.410Z,4.10
2019-02-03T23:09:34.046Z,4.10
2019-02-03T23:12:08.894Z,4.00
2019-02-03T23:14:40.718Z,4.10
2019-02-03T23:17:12.505Z,4.10
2019-02-03T23:19:46.621Z,4.00
2019-02-03T23:22:21.363Z,4.00
2019-02-03T23:24:56.023Z,4.00
2019-02-03T23:27:27.544Z,4.00
2019-02-03T23:29:59.177Z,4.00
2019-02-03T23:32:30.658Z,4.00
2019-02-03T23:35:02.448Z,4.00
2019-02-03T23:37:34.571Z,4.00
2019-02-03T23:40:08.087Z,4.00
2019-02-03T23:42:39.585Z,4.00
2019-02-03T23:45:11.011Z,4.00
2019-02-03T23:47:42.518Z,4.00
2019-02-03T23:50:14.835Z,4.00
2019-02-03T23:52:46.248Z,3.90
2019-02-03T23:55:18.022Z,4.00
2019-02-03T23:57:49.490Z,4.00
